Time;durP1;ratioP1;P1;durP2;ratioP2;P2;SDS_P1;SDS_P2;PMS_P1;PMS_P2;Temp;Humidity;BMP_temperature;BMP_pressure;BME280_temperature;BME280_humidity;BME280_pressure;Samples;Min_cycle;Max_cycle;Signal;HPM_P1;HPM_P2
2022/11/16 00:00:13;;;;;;;55.40;34.38;;;6.50;1.00;;;;;;6292907;22;20205;-81
2022/11/16 00:02:40;;;;;;;52.47;34.38;;;6.50;1.00;;;;;;6293099;22;20975;-80
2022/11/16 00:05:13;;;;;;;50.22;35.50;;;6.40;1.00;;;;;;6288916;22;20638;-80
2022/11/16 00:07:41;;;;;;;53.03;35.28;;;6.30;1.00;;;;;;6290493;22;20275;-80
2022/11/16 00:10:13;;;;;;;51.38;32.70;;;6.30;1.00;;;;;;6291869;22;20240;-81
2022/11/16 00:12:40;;;;;;;51.90;32.95;;;6.30;1.00;;;;;;6292603;22;20233;-80
2022/11/16 00:15:19;;;;;;;49.70;33.47;;;6.30;1.00;;;;;;6291545;22;20228;-80
2022/11/16 00:17:46;;;;;;;48.53;32.70;;;6.30;1.00;;;;;;6291884;22;20300;-80
2022/11/16 00:20:14;;;;;;;48.67;32.42;;;6.30;1.00;;;;;;6290714;22;20209;-81
2022/11/16 00:22:40;;;;;;;50.47;34.38;;;6.30;1.00;;;;;;6287003;22;20213;-80
2022/11/16 00:25:13;;;;;;;47.15;32.42;;;6.30;1.00;;;;;;6291232;22;20216;-81
2022/11/16 00:27:40;;;;;;;55.40;34.60;;;6.40;1.00;;;;;;6289859;22;20252;-79
2022/11/16 00:30:15;;;;;;;45.75;30.33;;;6.50;1.00;;;;;;6291355;22;20214;-81
2022/11/16 00:32:41;;;;;;;50.22;31.48;;;6.40;1.00;;;;;;6289983;22;20236;-82
2022/11/16 00:35:14;;;;;;;51.33;32.92;;;6.40;1.00;;;;;;6291433;22;20208;-81
2022/11/16 00:37:41;;;;;;;47.42;31.38;;;6.40;1.00;;;;;;6289540;22;20792;-81
2022/11/16 00:40:14;;;;;;;48.53;31.75;;;6.50;1.00;;;;;;6288917;22;20216;-81
2022/11/16 00:42:41;;;;;;;51.17;33.05;;;6.40;1.00;;;;;;6283360;22;20217;-82
2022/11/16 00:45:14;;;;;;;50.90;33.63;;;6.30;1.00;;;;;;6289989;22;20214;-81
2022/11/16 00:47:41;;;;;;;50.50;31.80;;;6.20;1.00;;;;;;6288693;22;20412;-82
2022/11/16 00:50:13;;;;;;;55.58;32.00;;;6.30;1.00;;;;;;6289364;22;21018;-80
2022/11/16 00:52:40;;;;;;;49.53;31.10;;;6.30;1.00;;;;;;6290975;22;20217;-81
2022/11/16 00:55:09;;;;;;;49.17;31.20;;;6.30;1.00;;;;;;6290335;22;20213;-80
2022/11/16 00:57:36;;;;;;;49.55;32.85;;;6.30;1.00;;;;;;6293136;22;20236;-80
2022/11/16 01:00:03;;;;;;;48.58;31.63;;;6.30;1.00;;;;;;6291831;22;20216;-83
2022/11/16 01:02:34;;;;;;;47.90;32.83;;;6.30;1.00;;;;;;6292743;22;20219;-82
2022/11/16 01:05:01;;;;;;;45.20;31.92;;;6.20;1.00;;;;;;6290756;22;20928;-80
2022/11/16 01:07:28;;;;;;;49.40;32.85;;;6.20;1.00;;;;;;6290608;22;20322;-80
2022/11/16 01:09:55;;;;;;;46.45;30.75;;;6.30;1.00;;;;;;6289823;22;20218;-78
2022/11/16 01:12:22;;;;;;;52.78;31.77;;;6.30;1.00;;;;;;6290328;22;20272;-80
2022/11/16 01:14:58;;;;;;;45.30;30.67;;;6.30;1.00;;;;;;6288946;22;20225;-81
2022/11/16 01:17:25;;;;;;;53.80;31.70;;;6.30;1.00;;;;;;6292372;22;20216;-79
2022/11/16 01:19:55;;;;;;;41.67;31.42;;;6.30;1.00;;;;;;6291957;22;20225;-80
2022/11/16 01:22:25;;;;;;;46.15;30.95;;;6.30;1.00;;;;;;6290773;22;20222;-78
2022/11/16 01:24:54;;;;;;;49.45;30.95;;;6.30;1.00;;;;;;6289202;22;20209;-80
2022/11/16 01:27:24;;;;;;;47.13;31.10;;;6.30;1.00;;;;;;6291587;22;20286;-79
2022/11/16 01:30:01;;;;;;;47.15;30.17;;;6.30;1.00;;;;;;6291061;22;20196;-80
2022/11/16 01:32:30;;;;;;;50.55;32.40;;;6.20;1.00;;;;;;6290358;22;20215;-80
2022/11/16 01:34:58;;;;;;;44.80;30.63;;;6.20;1.00;;;;;;6288297;22;20541;-80
2022/11/16 01:37:26;;;;;;;49.67;31.98;;;6.20;1.00;;;;;;6288760;22;20218;-80
2022/11/16 01:39:54;;;;;;;47.22;30.75;;;6.20;1.00;;;;;;6286166;22;20400;-79
2022/11/16 01:42:23;;;;;;;48.97;30.05;;;6.30;1.00;;;;;;6288012;22;20215;-79
2022/11/16 01:45:00;;;;;;;46.55;29.23;;;6.30;1.00;;;;;;6286621;22;20217;-80
2022/11/16 01:47:30;;;;;;;49.70;30.92;;;6.20;1.00;;;;;;6283912;22;20269;-80
2022/11/16 01:50:12;;;;;;;47.60;30.42;;;6.00;1.00;;;;;;6281809;22;20220;-79
2022/11/16 01:52:46;;;;;;;46.33;29.27;;;6.10;1.00;;;;;;6289387;22;20210;-80
2022/11/16 01:55:13;;;;;;;44.15;27.67;;;6.20;1.00;;;;;;6282283;22;20936;-81
2022/11/16 01:57:46;;;;;;;45.97;27.77;;;6.20;1.00;;;;;;6307519;22;20197;-81
2022/11/16 02:00:16;;;;;;;43.00;28.67;;;6.30;1.00;;;;;;6289255;22;20916;-80
2022/11/16 02:02:44;;;;;;;45.45;28.90;;;6.30;1.00;;;;;;6273471;22;20209;-81
2022/11/16 02:05:22;;;;;;;40.08;25.58;;;6.30;1.00;;;;;;6292800;22;20945;-81
2022/11/16 02:11:22;;;;;;;44.38;27.95;;;6.30;1.00;;;;;;6288663;22;20268;-78
2022/11/16 02:14:04;;;;;;;45.28;27.58;;;6.30;1.00;;;;;;6290402;22;20227;-79
2022/11/16 02:16:47;;;;;;;42.35;27.23;;;6.40;1.00;;;;;;6297440;22;20243;-79
2022/11/16 02:19:43;;;;;;;39.22;26.38;;;6.30;1.00;;;;;;6292400;22;20632;-81
2022/11/16 02:22:33;;;;;;;46.05;26.42;;;6.30;1.00;;;;;;6276109;22;20213;-80
2022/11/16 02:25:06;;;;;;;48.83;28.80;;;6.30;1.00;;;;;;6288261;22;20205;-81
2022/11/16 02:27:48;;;;;;;45.00;28.70;;;6.20;1.00;;;;;;6308238;22;20220;-81
2022/11/16 02:30:23;;;;;;;42.05;27.48;;;6.20;1.00;;;;;;6289041;22;20208;-81
2022/11/16 02:32:57;;;;;;;47.83;29.83;;;6.10;1.00;;;;;;6289463;22;20219;-81
2022/11/16 02:35:31;;;;;;;45.88;28.77;;;6.10;1.00;;;;;;6296801;22;20305;-80
2022/11/16 02:38:06;;;;;;;45.15;28.63;;;6.10;1.00;;;;;;6290091;22;20641;-83
2022/11/16 02:40:37;;;;;;;46.38;29.23;;;6.20;1.00;;;;;;6274830;22;20233;-81
2022/11/16 02:43:13;;;;;;;50.38;30.63;;;6.20;1.00;;;;;;6284900;22;20839;-80
2022/11/16 02:45:50;;;;;;;49.38;29.67;;;6.30;1.00;;;;;;6291732;22;20206;-80
2022/11/16 02:48:28;;;;;;;49.17;28.88;;;6.20;1.00;;;;;;6287792;22;20276;-81
2022/11/16 02:50:56;;;;;;;47.85;28.92;;;6.20;1.00;;;;;;6300501;22;20279;-81
2022/11/16 02:53:26;;;;;;;46.22;29.40;;;6.10;1.00;;;;;;6313414;22;20202;-79
2022/11/16 02:55:52;;;;;;;46.78;29.58;;;6.20;1.00;;;;;;6272228;22;20334;-80
2022/11/16 02:58:28;;;;;;;48.28;30.17;;;6.10;1.00;;;;;;6284829;22;20212;-79
2022/11/16 03:01:04;;;;;;;48.05;29.10;;;6.00;1.00;;;;;;6284663;22;20211;-79
2022/11/16 03:03:42;;;;;;;53.17;31.48;;;5.90;1.00;;;;;;6290612;22;20215;-78
2022/11/16 03:06:14;;;;;;;46.15;28.77;;;6.00;1.00;;;;;;6308132;22;20279;-78
2022/11/16 03:08:46;;;;;;;47.92;29.52;;;6.00;1.00;;;;;;6290703;22;20210;-78
2022/11/16 03:14:07;;;;;;;45.90;29.08;;;6.10;1.00;;;;;;6227498;22;20222;-78
2022/11/16 03:16:44;;;;;;;53.97;31.75;;;6.10;1.00;;;;;;6291428;22;20225;-80
2022/11/16 03:19:14;;;;;;;58.28;32.00;;;6.20;1.00;;;;;;6289145;22;20248;-80
2022/11/16 03:21:49;;;;;;;47.75;31.13;;;6.00;1.00;;;;;;6293313;22;20220;-79
2022/11/16 03:24:16;;;;;;;47.97;30.17;;;6.00;1.00;;;;;;6281372;22;20208;-79
2022/11/16 03:26:48;;;;;;;48.40;33.75;;;6.10;1.00;;;;;;6283407;22;20216;-79
2022/11/16 03:29:25;;;;;;;56.28;33.05;;;6.10;1.00;;;;;;6286957;22;20287;-80
2022/11/16 03:32:04;;;;;;;50.45;33.15;;;6.10;1.00;;;;;;6290007;22;20231;-79
2022/11/16 03:34:35;;;;;;;46.90;31.42;;;6.10;1.00;;;;;;6288597;22;21057;-78
2022/11/16 03:37:07;;;;;;;54.55;35.38;;;6.10;1.00;;;;;;6266736;22;20216;-80
2022/11/16 03:39:45;;;;;;;62.22;37.65;;;6.10;1.00;;;;;;6298890;22;20215;-80
2022/11/16 03:42:13;;;;;;;56.20;34.28;;;6.10;1.00;;;;;;6286040;22;20347;-80
2022/11/16 03:44:46;;;;;;;61.05;35.35;;;6.20;1.00;;;;;;6285381;22;21082;-80
2022/11/16 03:47:14;;;;;;;60.85;39.40;;;6.20;1.00;;;;;;6293750;22;20216;-80
2022/11/16 03:49:45;;;;;;;65.90;39.63;;;6.00;1.00;;;;;;6292909;22;20219;-80
2022/11/16 03:52:13;;;;;;;61.90;39.38;;;6.00;1.00;;;;;;6281272;22;20917;-82
2022/11/16 03:54:50;;;;;;;60.88;37.30;;;6.10;1.00;;;;;;6307843;22;20231;-82
2022/11/16 03:57:17;;;;;;;60.70;36.72;;;6.10;1.00;;;;;;6291683;22;20216;-80
2022/11/16 03:59:45;;;;;;;62.28;39.28;;;6.10;1.00;;;;;;6294050;22;20208;-79
2022/11/16 04:02:11;;;;;;;65.05;40.97;;;6.10;1.00;;;;;;6289430;22;20709;-79
2022/11/16 04:24:15;;;;;;;69.20;39.45;;;6.40;1.00;;;;;;6276730;22;20249;-82
2022/11/16 04:29:31;;;;;;;60.17;35.85;;;6.40;1.00;;;;;;6286052;22;20214;-79
2022/11/16 04:37:51;;;;;;;70.57;38.83;;;6.50;1.00;;;;;;6288843;22;20210;-78
2022/11/16 04:40:28;;;;;;;69.25;37.38;;;6.40;1.00;;;;;;6276094;22;20207;-80
2022/11/16 04:42:57;;;;;;;78.30;41.05;;;6.40;1.00;;;;;;6301163;22;20588;-81
2022/11/16 04:48:11;;;;;;;87.45;48.95;;;6.50;1.00;;;;;;6283077;22;20287;-81
2022/11/16 04:50:44;;;;;;;76.30;38.38;;;6.50;1.00;;;;;;6287654;22;20229;-80
2022/11/16 04:53:13;;;;;;;76.68;40.15;;;6.50;1.00;;;;;;6287268;22;20205;-80
2022/11/16 04:55:45;;;;;;;75.32;40.33;;;6.50;1.00;;;;;;6280732;22;20201;-81
2022/11/16 04:58:13;;;;;;;76.90;39.95;;;6.50;1.00;;;;;;6285513;22;20216;-81
2022/11/16 05:00:46;;;;;;;80.00;41.40;;;6.50;1.00;;;;;;6308739;22;20218;-81
2022/11/16 05:03:14;;;;;;;77.03;43.15;;;6.60;1.00;;;;;;6288394;22;20217;-81
2022/11/16 05:05:44;;;;;;;77.10;40.88;;;6.60;1.00;;;;;;6286969;22;20241;-81
2022/11/16 05:08:14;;;;;;;75.38;38.63;;;6.70;1.00;;;;;;6285226;22;20245;-81
2022/11/16 05:10:50;;;;;;;83.30;42.33;;;6.60;1.00;;;;;;6292607;22;20222;-82
2022/11/16 05:13:16;;;;;;;84.25;42.50;;;6.60;1.00;;;;;;6279281;22;20211;-80
2022/11/16 05:15:49;;;;;;;77.03;40.55;;;6.70;1.00;;;;;;6290028;22;20207;-81
2022/11/16 05:18:16;;;;;;;79.00;42.15;;;6.70;1.00;;;;;;6293103;22;20706;-80
2022/11/16 05:26:14;;;;;;;84.38;45.13;;;6.70;1.00;;;;;;6282690;22;20233;-79
2022/11/16 05:28:45;;;;;;;81.70;43.35;;;6.80;1.00;;;;;;6288118;22;20224;-80
2022/11/16 05:31:12;;;;;;;79.85;41.10;;;6.70;1.00;;;;;;6306527;22;20217;-80
2022/11/16 05:33:44;;;;;;;85.35;40.15;;;6.80;1.00;;;;;;6288959;22;20264;-81
2022/11/16 05:36:10;;;;;;;84.38;42.55;;;6.80;1.00;;;;;;6292991;22;20228;-80
2022/11/16 05:38:47;;;;;;;91.68;43.60;;;6.90;1.00;;;;;;6289447;22;20213;-80
2022/11/16 05:41:14;;;;;;;81.82;44.47;;;6.90;1.00;;;;;;6271055;22;20275;-81
2022/11/16 05:43:45;;;;;;;94.53;46.97;;;7.00;1.00;;;;;;6286891;22;20197;-80
2022/11/16 05:46:11;;;;;;;82.30;43.85;;;7.00;1.00;;;;;;6275361;22;20218;-80
2022/11/16 05:48:45;;;;;;;91.55;43.17;;;7.00;1.00;;;;;;6286500;22;20913;-80
2022/11/16 05:51:12;;;;;;;86.80;45.55;;;7.00;1.00;;;;;;6290623;22;20677;-77
2022/11/16 05:53:45;;;;;;;89.72;44.22;;;7.00;1.00;;;;;;6291771;22;20814;-78
2022/11/16 05:56:13;;;;;;;92.22;44.92;;;7.10;1.00;;;;;;6285421;22;20207;-77
2022/11/16 05:58:48;;;;;;;78.57;42.38;;;7.10;1.00;;;;;;6272924;22;20242;-80
2022/11/16 06:01:15;;;;;;;84.15;41.38;;;7.10;1.00;;;;;;6298551;22;20208;-77
2022/11/16 06:03:49;;;;;;;87.45;43.22;;;7.10;1.00;;;;;;6266656;22;20234;-82
2022/11/16 06:06:17;;;;;;;86.13;41.60;;;7.10;1.00;;;;;;6260529;22;20212;-81
2022/11/16 06:08:46;;;;;;;89.25;42.03;;;7.20;1.00;;;;;;6278940;22;20198;-80
2022/11/16 06:11:13;;;;;;;81.00;43.28;;;7.20;1.00;;;;;;6289258;22;20221;-81
2022/11/16 06:13:45;;;;;;;80.10;43.15;;;7.20;1.00;;;;;;6297992;22;20211;-80
2022/11/16 06:16:12;;;;;;;85.07;43.28;;;7.30;1.00;;;;;;6288614;22;20664;-80
2022/11/16 06:18:44;;;;;;;78.07;42.10;;;7.20;1.00;;;;;;6292473;22;20275;-80
2022/11/16 06:21:14;;;;;;;83.30;40.80;;;7.30;1.00;;;;;;6280382;22;20233;-81
2022/11/16 06:23:52;;;;;;;85.50;42.92;;;7.40;1.00;;;;;;6284373;22;20290;-80
2022/11/16 06:26:32;;;;;;;82.43;41.40;;;7.50;1.00;;;;;;6290693;22;20209;-78
2022/11/16 06:29:03;;;;;;;92.75;44.92;;;7.50;1.00;;;;;;6261069;22;20223;-80
2022/11/16 06:31:32;;;;;;;84.20;42.78;;;7.60;1.00;;;;;;6283673;22;20213;-82
2022/11/16 06:34:03;;;;;;;86.70;42.35;;;7.50;1.00;;;;;;6287347;22;20566;-80
2022/11/16 06:36:31;;;;;;;84.20;42.55;;;7.50;1.00;;;;;;6274812;22;20226;-79
2022/11/16 06:39:10;;;;;;;82.78;42.03;;;7.50;1.00;;;;;;6285135;22;20217;-79
2022/11/16 06:41:37;;;;;;;85.07;41.22;;;7.50;1.00;;;;;;6288294;22;20272;-80
2022/11/16 06:44:06;;;;;;;79.95;42.65;;;7.40;1.00;;;;;;6285731;22;20196;-79
2022/11/16 06:46:35;;;;;;;85.53;39.42;;;7.50;1.00;;;;;;6300201;22;20228;-80
2022/11/16 06:49:05;;;;;;;86.53;42.55;;;7.50;1.00;;;;;;6275733;22;20241;-80
2022/11/16 07:07:27;;;;;;;83.13;43.10;;;7.50;1.00;;;;;;6279689;22;20213;-82
2022/11/16 07:09:54;;;;;;;92.18;40.45;;;7.50;1.00;;;;;;6253732;22;20213;-82
2022/11/16 07:12:21;;;;;;;81.43;38.97;;;7.50;1.00;;;;;;6277124;22;21006;-84
2022/11/16 07:14:50;;;;;;;84.63;43.20;;;7.40;1.00;;;;;;6294726;22;20210;-85
2022/11/16 07:17:19;;;;;;;76.20;43.20;;;7.40;1.00;;;;;;6294205;22;20255;-83
2022/11/16 07:19:50;;;;;;;78.63;39.92;;;7.50;1.00;;;;;;6293858;22;20210;-84
2022/11/16 07:22:22;;;;;;;88.95;39.28;;;7.50;1.00;;;;;;6292652;22;20181;-84
2022/11/16 07:25:02;;;;;;;85.03;41.65;;;7.50;1.00;;;;;;6284674;22;20220;-81
2022/11/16 07:27:31;;;;;;;76.32;40.42;;;7.50;1.00;;;;;;6308818;22;20205;-81
2022/11/16 07:30:00;;;;;;;85.97;44.17;;;7.40;1.00;;;;;;6295998;22;20228;-82
2022/11/16 07:35:21;;;;;;;80.95;42.28;;;7.40;1.00;;;;;;6276502;22;20209;-84
2022/11/16 07:37:48;;;;;;;83.10;42.90;;;7.40;1.00;;;;;;6300341;22;21045;-81
2022/11/16 07:40:23;;;;;;;86.43;42.90;;;7.30;1.00;;;;;;6277909;22;20209;-84
2022/11/16 07:42:50;;;;;;;86.50;43.10;;;7.30;1.00;;;;;;6314979;22;20228;-83
2022/11/16 07:45:20;;;;;;;80.05;41.78;;;7.30;1.00;;;;;;6291853;22;20221;-82
2022/11/16 07:47:52;;;;;;;83.30;40.67;;;7.30;1.00;;;;;;6293084;22;20214;-85
2022/11/16 07:50:31;;;;;;;89.50;44.17;;;7.30;1.00;;;;;;6280223;22;20240;-85
2022/11/16 08:06:43;;;;;;;76.57;39.55;;;7.50;1.00;;;;;;6257787;22;20222;-84
2022/11/16 08:09:10;;;;;;;80.63;41.13;;;7.50;1.00;;;;;;6265021;22;20217;-83
2022/11/16 08:11:41;;;;;;;91.32;41.42;;;7.50;1.00;;;;;;6262885;22;20199;-82
2022/11/16 08:14:11;;;;;;;79.60;39.13;;;7.50;1.00;;;;;;6262702;22;20240;-78
2022/11/16 08:16:40;;;;;;;81.28;39.42;;;7.50;1.00;;;;;;6264923;22;20209;-84
2022/11/16 08:19:07;;;;;;;76.57;38.65;;;7.40;1.00;;;;;;6260903;22;20218;-85
2022/11/16 08:21:41;;;;;;;78.80;39.15;;;7.40;1.00;;;;;;6269398;22;20847;-81
2022/11/16 08:24:09;;;;;;;83.50;38.42;;;7.40;1.00;;;;;;6256582;22;20222;-81
2022/11/16 08:26:42;;;;;;;82.68;38.55;;;7.40;1.00;;;;;;6262964;22;20214;-85
2022/11/16 08:29:10;;;;;;;74.47;35.03;;;7.40;1.00;;;;;;6259290;22;20665;-79
2022/11/16 08:31:44;;;;;;;80.03;37.05;;;7.40;1.00;;;;;;6256869;22;20234;-82
2022/11/16 08:34:23;;;;;;;;;;;;;;;;;;;;;
2022/11/16 08:36:58;;;;;;;62.88;31.95;;;7.50;1.00;;;;;;6259308;22;41269;-82
2022/11/16 08:39:28;;;;;;;62.22;32.53;;;7.50;1.00;;;;;;6259763;22;20223;-80
2022/11/16 08:42:00;;;;;;;59.97;34.60;;;7.50;1.00;;;;;;6258015;22;20206;-83
2022/11/16 08:44:28;;;;;;;67.68;34.15;;;7.50;1.00;;;;;;6258922;22;20269;-82
2022/11/16 08:47:10;;;;;;;68.20;34.28;;;7.40;1.00;;;;;;6245583;22;20249;-83
2022/11/16 08:49:41;;;;;;;65.55;34.35;;;7.40;1.00;;;;;;6261708;22;20224;-86
2022/11/16 08:52:11;;;;;;;64.93;32.78;;;7.30;1.00;;;;;;6265561;22;20289;-85
2022/11/16 08:54:40;;;;;;;63.78;32.80;;;7.40;1.00;;;;;;6262230;22;20204;-83
2022/11/16 08:57:09;;;;;;;54.30;31.70;;;7.40;1.00;;;;;;6261181;22;20210;-85
2022/11/16 08:59:51;;;;;;;61.85;33.97;;;7.30;1.00;;;;;;6266738;22;20218;-85
2022/11/16 09:02:24;;;;;;;65.80;34.47;;;7.30;1.00;;;;;;6255253;22;20250;-82
2022/11/16 09:04:51;;;;;;;66.13;31.30;;;7.30;1.00;;;;;;6258124;22;20219;-83
2022/11/16 09:07:22;;;;;;;55.60;31.95;;;7.30;1.00;;;;;;6254815;22;20201;-83
2022/11/16 09:09:49;;;;;;;65.10;32.05;;;7.30;1.00;;;;;;6255632;22;20300;-83
2022/11/16 09:12:20;;;;;;;59.08;30.42;;;7.30;1.00;;;;;;6258591;22;20215;-86
2022/11/16 09:14:47;;;;;;;58.75;32.58;;;7.30;1.00;;;;;;6259982;22;20279;-80
2022/11/16 09:17:15;;;;;;;54.35;27.95;;;7.40;1.00;;;;;;6258109;22;20765;-84
2022/11/16 09:19:42;;;;;;;53.67;28.63;;;7.50;1.00;;;;;;6260521;22;20222;-79
2022/11/16 09:22:09;;;;;;;50.53;27.83;;;7.40;1.00;;;;;;6258767;22;20214;-81
2022/11/16 09:24:42;;;;;;;46.60;26.05;;;7.40;1.00;;;;;;6260519;22;20206;-85
2022/11/16 09:27:09;;;;;;;43.53;22.70;;;7.50;1.00;;;;;;6254261;22;20210;-85
2022/11/16 09:29:40;;;;;;;40.30;21.80;;;7.40;1.00;;;;;;6263016;22;20211;-87
2022/11/16 09:32:07;;;;;;;45.47;24.05;;;7.40;1.00;;;;;;6261613;22;20683;-79
2022/11/16 09:34:40;;;;;;;40.05;20.35;;;7.40;1.00;;;;;;6257541;22;20221;-83
2022/11/16 09:37:07;;;;;;;34.83;19.90;;;7.40;1.00;;;;;;6266260;22;20836;-84
2022/11/16 09:39:39;;;;;;;33.08;19.65;;;7.40;1.00;;;;;;6258386;22;20253;-83
2022/11/16 09:42:21;;;;;;;32.30;18.67;;;7.40;1.00;;;;;;6256561;22;20228;-78
2022/11/16 09:45:03;;;;;;;35.72;18.83;;;7.40;1.00;;;;;;6254642;22;20223;-80
2022/11/16 09:47:47;;;;;;;30.92;18.15;;;7.40;1.00;;;;;;6254122;22;20775;-80
2022/11/16 09:50:35;;;;;;;32.55;19.45;;;7.50;1.00;;;;;;6255211;22;21080;-80
2022/11/16 09:53:22;;;;;;;30.52;19.55;;;7.50;1.00;;;;;;6260412;22;21021;-80
2022/11/16 09:55:53;;;;;;;36.30;18.75;;;7.50;1.00;;;;;;6244511;22;20192;-87
2022/11/16 09:58:31;;;;;;;29.63;19.10;;;7.50;1.00;;;;;;6257924;22;20218;-90
2022/11/16 10:01:10;;;;;;;36.75;20.90;;;7.40;1.00;;;;;;6259253;22;20820;-80
2022/11/16 10:03:43;;;;;;;34.72;20.80;;;7.40;1.00;;;;;;6248174;22;20744;-80
2022/11/16 10:06:20;;;;;;;32.97;18.60;;;7.40;1.00;;;;;;6272419;22;20269;-80
2022/11/16 10:08:55;;;;;;;39.05;21.67;;;7.50;1.00;;;;;;6258312;22;20275;-80
2022/11/16 10:11:51;;;;;;;31.52;21.17;;;7.40;1.00;;;;;;6251189;22;20276;-87
2022/11/16 10:15:03;;;;;;;34.50;20.58;;;7.30;1.00;;;;;;6287480;22;20562;-80
2022/11/16 10:17:50;;;;;;;33.53;20.75;;;7.40;1.00;;;;;;6220670;22;20297;-82
2022/11/16 10:20:49;;;;;;;33.05;20.50;;;7.40;1.00;;;;;;6269241;22;20209;-87
2022/11/16 10:23:29;;;;;;;34.63;22.60;;;7.40;1.00;;;;;;6267415;22;20258;-79
2022/11/16 10:26:09;;;;;;;35.33;22.92;;;7.40;1.00;;;;;;6267445;22;20281;-85
2022/11/16 10:28:58;;;;;;;32.25;20.75;;;7.40;1.00;;;;;;6256360;22;20256;-83
2022/11/16 10:31:44;;;;;;;39.35;21.27;;;7.30;1.00;;;;;;6260076;22;20220;-82
2022/11/16 10:34:24;;;;;;;34.58;21.17;;;7.40;1.00;;;;;;6258230;22;20222;-80
2022/11/16 10:37:02;;;;;;;38.85;21.15;;;7.40;1.00;;;;;;6258347;22;20219;-80
2022/11/16 10:39:33;;;;;;;38.63;22.00;;;7.40;1.00;;;;;;6258041;22;20195;-82
2022/11/16 10:42:12;;;;;;;34.58;22.05;;;7.20;1.00;;;;;;6255610;22;20202;-81
2022/11/16 10:44:46;;;;;;;37.22;22.50;;;7.20;1.00;;;;;;6244522;22;20435;-78
2022/11/16 10:47:26;;;;;;;38.78;23.67;;;7.30;1.00;;;;;;6257392;22;20961;-82
2022/11/16 10:50:01;;;;;;;36.53;23.50;;;7.20;1.00;;;;;;6258491;22;20765;-82
2022/11/16 10:52:30;;;;;;;34.10;23.25;;;7.30;1.00;;;;;;6256385;22;20233;-79
2022/11/16 10:55:07;;;;;;;40.15;23.40;;;7.20;1.00;;;;;;6259708;22;21004;-80
2022/11/16 10:58:00;;;;;;;38.80;23.08;;;7.20;1.00;;;;;;6253440;22;20206;-78
2022/11/16 11:00:47;;;;;;;39.88;22.92;;;7.20;1.00;;;;;;6255219;22;20227;-77
2022/11/16 11:03:28;;;;;;;36.70;25.58;;;7.20;1.00;;;;;;6259726;22;20210;-80
2022/11/16 11:06:01;;;;;;;38.03;23.75;;;7.20;1.00;;;;;;6261814;22;20218;-83
2022/11/16 11:08:30;;;;;;;38.22;24.05;;;7.20;1.00;;;;;;6256101;22;20213;-79
2022/11/16 11:12:36;;;;;;;36.65;24.52;;;7.20;1.00;;;;;;6260317;22;20261;-85
2022/11/16 11:14:09;;;;;;;41.40;26.13;;;7.30;1.00;;;;;;6239497;22;20290;-83
2022/11/16 11:16:38;;;;;;;40.08;23.92;;;7.20;1.00;;;;;;6253223;22;20225;-82
2022/11/16 11:19:28;;;;;;;40.60;25.10;;;7.20;1.00;;;;;;6263499;22;20255;-79
2022/11/16 11:22:02;;;;;;;38.80;23.88;;;7.30;1.00;;;;;;6257082;22;20226;-78
2022/11/16 11:24:32;;;;;;;42.45;25.25;;;7.40;1.00;;;;;;6258504;22;20210;-83
2022/11/16 11:27:04;;;;;;;37.13;24.58;;;7.50;1.00;;;;;;6258886;22;20216;-80
2022/11/16 11:29:34;;;;;;;39.90;27.60;;;7.40;1.00;;;;;;6256618;22;20214;-83
2022/11/16 11:32:06;;;;;;;35.53;23.67;;;7.30;1.00;;;;;;6259962;22;20198;-81
2022/11/16 11:34:43;;;;;;;41.75;28.58;;;7.30;1.00;;;;;;6255215;22;20840;-80
2022/11/16 11:37:22;;;;;;;40.40;25.55;;;7.30;1.00;;;;;;6255757;22;20264;-83
2022/11/16 11:40:04;;;;;;;36.38;23.70;;;7.40;1.00;;;;;;6260406;22;21032;-81
2022/11/16 11:42:31;;;;;;;37.85;25.85;;;7.40;1.00;;;;;;6259023;22;20218;-82
2022/11/16 11:45:12;;;;;;;36.47;23.83;;;7.30;1.00;;;;;;6261075;22;20209;-84
2022/11/16 11:47:51;;;;;;;37.55;24.38;;;7.40;1.00;;;;;;6267258;22;20214;-85
2022/11/16 11:50:28;;;;;;;40.33;23.75;;;7.40;1.00;;;;;;6262592;22;20207;-84
2022/11/16 11:53:06;;;;;;;46.15;25.67;;;7.40;1.00;;;;;;6265827;22;20966;-81
2022/11/16 11:55:33;;;;;;;37.22;24.83;;;7.50;1.00;;;;;;6264272;22;20273;-85
2022/11/16 11:58:04;;;;;;;35.65;24.35;;;7.60;1.00;;;;;;6263576;22;20197;-86
2022/11/16 12:00:48;;;;;;;39.67;26.02;;;7.60;1.00;;;;;;6265933;22;20211;-88
2022/11/16 12:03:44;;;;;;;42.70;25.95;;;7.60;1.00;;;;;;6259839;22;20221;-80
2022/11/16 12:06:27;;;;;;;36.28;24.88;;;7.60;1.00;;;;;;6165257;23;20286;-82
2022/11/16 12:09:13;;;;;;;40.08;29.35;;;7.60;1.00;;;;;;6262537;22;21049;-83
2022/11/16 12:11:53;;;;;;;37.75;24.75;;;7.40;1.00;;;;;;6263795;22;20226;-81
2022/11/16 12:14:33;;;;;;;41.85;26.27;;;7.40;1.00;;;;;;6263542;22;20205;-82
2022/11/16 12:17:12;;;;;;;39.72;25.27;;;7.40;1.00;;;;;;6269064;22;20210;-81
2022/11/16 12:22:33;;;;;;;38.75;24.70;;;7.40;1.00;;;;;;6298584;22;20258;-85
2022/11/16 12:25:17;;;;;;;40.05;25.00;;;7.40;1.00;;;;;;6298373;22;20185;-86
2022/11/16 12:28:02;;;;;;;37.78;23.15;;;7.30;1.00;;;;;;6297388;22;20202;-83
2022/11/16 12:30:42;;;;;;;35.85;24.00;;;7.40;1.00;;;;;;6293059;22;20214;-81
2022/11/16 12:33:23;;;;;;;35.67;24.17;;;7.50;1.00;;;;;;6290554;22;20225;-88
2022/11/16 12:36:02;;;;;;;37.08;24.80;;;7.60;1.00;;;;;;6299492;22;20375;-79
2022/11/16 12:38:42;;;;;;;33.92;23.23;;;7.60;1.00;;;;;;6288519;22;20226;-80
2022/11/16 12:41:50;;;;;;;37.83;23.05;;;7.50;1.00;;;;;;6288811;22;20208;-79
2022/11/16 12:44:27;;;;;;;40.65;25.38;;;7.50;1.00;;;;;;6236671;22;20218;-83
2022/11/16 12:47:05;;;;;;;42.47;24.10;;;7.60;1.00;;;;;;6294147;22;20284;-87
2022/11/16 12:50:15;;;;;;;37.97;23.30;;;7.60;1.00;;;;;;6289356;22;20221;-84
2022/11/16 12:53:02;;;;;;;34.75;21.05;;;7.60;1.00;;;;;;6278962;22;20218;-83
2022/11/16 12:55:44;;;;;;;38.38;24.15;;;7.70;1.00;;;;;;6285454;22;20214;-82
2022/11/16 12:58:22;;;;;;;35.20;23.70;;;7.70;1.00;;;;;;6289432;22;20221;-84
2022/11/16 13:01:04;;;;;;;38.15;24.40;;;7.60;1.00;;;;;;6260535;22;20382;-82
2022/11/16 13:03:41;;;;;;;33.72;21.75;;;7.60;1.00;;;;;;6261491;22;20216;-84
2022/11/16 13:06:17;;;;;;;36.17;22.65;;;7.70;1.00;;;;;;6291430;22;20218;-82
2022/11/16 13:08:59;;;;;;;31.00;21.70;;;7.70;1.00;;;;;;6257016;22;20220;-85
2022/11/16 13:11:41;;;;;;;32.10;21.83;;;7.70;1.00;;;;;;6256901;22;20216;-84
2022/11/16 13:14:19;;;;;;;35.28;22.60;;;7.70;1.00;;;;;;6263728;22;20222;-85
2022/11/16 13:16:56;;;;;;;31.48;21.13;;;7.60;1.00;;;;;;6292827;22;20219;-85
2022/11/16 13:19:32;;;;;;;30.77;20.13;;;7.60;1.00;;;;;;6296201;22;20217;-84
2022/11/16 13:22:12;;;;;;;32.10;21.23;;;7.60;1.00;;;;;;6273001;22;20264;-84
2022/11/16 13:24:53;;;;;;;25.90;19.50;;;7.60;1.00;;;;;;6283857;22;20272;-84
2022/11/16 13:27:38;;;;;;;28.15;19.15;;;7.60;1.00;;;;;;6277953;22;20946;-84
2022/11/16 13:30:14;;;;;;;31.00;21.33;;;7.70;1.00;;;;;;6271965;22;20898;-84
2022/11/16 13:33:00;;;;;;;31.17;19.73;;;7.70;1.00;;;;;;6261520;22;20401;-87
2022/11/16 13:35:40;;;;;;;29.50;20.23;;;7.70;1.00;;;;;;6272179;22;20243;-83
2022/11/16 13:38:53;;;;;;;30.13;21.02;;;7.70;1.00;;;;;;6297152;22;20213;-81
2022/11/16 13:41:57;;;;;;;38.10;29.73;;;7.70;1.00;;;;;;6279009;22;20204;-85
2022/11/16 13:44:55;;;;;;;31.77;21.58;;;7.80;1.00;;;;;;6195288;22;20225;-86
2022/11/16 13:47:35;;;;;;;25.83;18.83;;;7.80;1.00;;;;;;6294832;22;20927;-82
2022/11/16 13:50:04;;;;;;;29.70;20.20;;;7.80;1.00;;;;;;6295677;22;20262;-87
2022/11/16 13:52:44;;;;;;;28.92;20.38;;;7.80;1.00;;;;;;6296976;22;20226;-87
2022/11/16 13:55:24;;;;;;;29.48;18.38;;;7.80;1.00;;;;;;6237197;22;20210;-82
2022/11/16 13:57:56;;;;;;;25.92;18.17;;;7.80;1.00;;;;;;6296647;22;20197;-86
2022/11/16 14:00:34;;;;;;;31.95;23.55;;;7.80;1.00;;;;;;6273899;22;21013;-84
2022/11/16 14:03:40;;;;;;;29.85;18.65;;;7.80;1.00;;;;;;6276060;22;20273;-86
2022/11/16 14:06:43;;;;;;;27.05;18.30;;;7.90;1.00;;;;;;6288929;22;20245;-84
2022/11/16 14:09:53;;;;;;;29.27;19.40;;;7.90;1.00;;;;;;6284707;22;20238;-87
2022/11/16 14:12:53;;;;;;;25.60;18.15;;;7.90;1.00;;;;;;6257620;22;20220;-84
2022/11/16 14:15:39;;;;;;;28.10;17.45;;;8.00;1.00;;;;;;6251583;22;20199;-83
2022/11/16 14:21:34;;;;;;;23.75;16.52;;;8.00;1.00;;;;;;6170648;23;20265;-85
2022/11/16 14:24:32;;;;;;;31.13;17.70;;;8.00;1.00;;;;;;6261075;22;20214;-84
2022/11/16 14:27:14;;;;;;;24.85;17.25;;;8.00;1.00;;;;;;6274204;22;20199;-86
2022/11/16 14:29:59;;;;;;;24.38;16.70;;;8.00;1.00;;;;;;6296402;22;20240;-88
2022/11/16 14:32:35;;;;;;;26.75;17.40;;;8.00;1.00;;;;;;6270579;22;20213;-88
2022/11/16 14:35:05;;;;;;;25.60;17.85;;;8.10;1.00;;;;;;6262000;22;20205;-87
2022/11/16 14:38:34;;;;;;;;;;;;;;;;;;;;;
2022/11/16 14:41:19;;;;;;;24.00;15.85;;;8.10;1.00;;;;;;6262533;22;20217;-84
2022/11/16 14:44:00;;;;;;;25.90;18.00;;;8.00;1.00;;;;;;6251692;22;20212;-88
2022/11/16 14:46:38;;;;;;;22.60;16.38;;;8.00;1.00;;;;;;6254828;22;20206;-87
2022/11/16 14:49:17;;;;;;;23.65;16.50;;;7.90;1.00;;;;;;6235887;22;20223;-85